Time;durP1;ratioP1;P1;durP2;ratioP2;P2;SDS_P1;SDS_P2;PMS_P1;PMS_P2;Temp;Humidity;BMP_temperature;BMP_pressure;BME280_temperature;BME280_humidity;BME280_pressure;Samples;Min_cycle;Max_cycle;Signal;HPM_P1;HPM_P2
2022/11/05 00:11:15;;;;;;;3.22;1.80;;;8.00;99.90;;;;;;5022481;28;20032;-63
2022/11/05 00:16:43;;;;;;;3.33;1.92;;;8.00;99.90;;;;;;5044472;28;20555;-63
2022/11/05 00:19:09;;;;;;;3.28;1.85;;;8.00;99.90;;;;;;5060922;28;20032;-63
2022/11/05 00:27:07;;;;;;;3.25;1.85;;;7.90;99.90;;;;;;5055171;28;20028;-63
2022/11/05 00:29:33;;;;;;;3.30;1.10;;;7.80;99.90;;;;;;5064815;28;20050;-63
2022/11/05 00:31:58;;;;;;;3.63;1.10;;;7.90;99.90;;;;;;5066477;28;20443;-63
2022/11/05 00:34:24;;;;;;;2.13;0.90;;;7.90;99.90;;;;;;5056786;28;20052;-63
2022/11/05 00:36:49;;;;;;;1.30;0.80;;;7.90;99.90;;;;;;5064311;28;20017;-63
2022/11/05 00:39:15;;;;;;;3.22;0.90;;;7.90;99.90;;;;;;5057452;28;20032;-63
2022/11/05 00:41:40;;;;;;;1.70;0.80;;;7.90;99.90;;;;;;5053795;28;20092;-63
2022/11/05 00:49:28;;;;;;;1.45;0.90;;;8.00;99.90;;;;;;5061379;28;20060;-63
2022/11/05 00:49:35;;;;;;;1.50;0.52;;;8.00;99.90;;;;;;5060192;28;20016;-64
2022/11/05 00:54:45;;;;;;;1.45;0.47;;;8.00;99.90;;;;;;5063390;28;20059;-62
2022/11/05 00:57:11;;;;;;;1.90;0.77;;;8.00;99.90;;;;;;5061479;28;20051;-62
2022/11/05 00:59:36;;;;;;;0.80;0.50;;;8.00;99.90;;;;;;5064397;28;20041;-63
2022/11/05 01:02:02;;;;;;;2.85;0.65;;;8.00;99.90;;;;;;5065307;28;20025;-63
2022/11/05 01:04:27;;;;;;;1.20;0.55;;;8.00;99.90;;;;;;5065609;28;20021;-63
2022/11/05 01:06:54;;;;;;;1.00;0.60;;;8.00;99.90;;;;;;5063258;28;20484;-63
2022/11/05 01:09:19;;;;;;;1.27;0.60;;;7.90;99.90;;;;;;5066053;28;20115;-63
2022/11/05 01:11:45;;;;;;;0.63;0.45;;;7.90;99.90;;;;;;5065043;28;20030;-63
2022/11/05 01:14:13;;;;;;;1.05;0.60;;;7.80;99.90;;;;;;5066807;28;20021;-62
2022/11/05 01:16:39;;;;;;;1.92;0.60;;;7.80;99.90;;;;;;5064585;28;20492;-63
2022/11/05 01:19:06;;;;;;;1.90;0.57;;;7.80;99.90;;;;;;5083780;28;20035;-63
2022/11/05 01:21:32;;;;;;;4.85;0.65;;;7.80;99.90;;;;;;5058079;28;20095;-63
2022/11/05 01:23:57;;;;;;;1.90;0.50;;;7.70;99.90;;;;;;5062647;28;20032;-63
2022/11/05 01:26:23;;;;;;;1.92;0.30;;;7.70;99.90;;;;;;5056922;28;20021;-63
2022/11/05 01:28:53;;;;;;;0.80;0.55;;;7.60;99.90;;;;;;5058980;28;20469;-62
2022/11/05 01:31:20;;;;;;;0.82;0.40;;;7.60;99.90;;;;;;5066081;28;20475;-63
2022/11/05 01:33:45;;;;;;;0.60;0.30;;;7.50;99.90;;;;;;5067217;28;20064;-62
2022/11/05 01:36:11;;;;;;;1.95;0.60;;;7.50;99.90;;;;;;5070565;28;20060;-62
2022/11/05 01:38:37;;;;;;;1.80;0.52;;;7.50;99.90;;;;;;5070054;28;20494;-63
2022/11/05 01:41:03;;;;;;;2.28;0.50;;;7.50;99.90;;;;;;5062259;28;20021;-63
2022/11/05 01:44:02;;;;;;;1.33;0.40;;;7.60;99.90;;;;;;5064163;28;20041;-63
2022/11/05 01:46:27;;;;;;;1.02;0.40;;;7.60;99.90;;;;;;5069434;28;20456;-62
2022/11/05 01:48:55;;;;;;;0.82;0.47;;;7.60;99.90;;;;;;5068051;28;20424;-62
2022/11/05 01:51:25;;;;;;;1.08;0.50;;;7.60;99.90;;;;;;5063567;28;20112;-63
2022/11/05 01:53:58;;;;;;;1.10;0.50;;;7.60;99.90;;;;;;5063297;28;20016;-62
2022/11/05 01:56:30;;;;;;;1.08;0.40;;;7.60;99.90;;;;;;5062378;28;20392;-63
2022/11/05 01:59:25;;;;;;;1.02;0.50;;;7.60;99.90;;;;;;5064780;28;20017;-63
2022/11/05 02:01:52;;;;;;;1.02;0.40;;;7.60;99.90;;;;;;5051624;28;20046;-62
2022/11/05 02:04:29;;;;;;;2.03;0.50;;;7.50;99.90;;;;;;5064323;28;20030;-63
2022/11/05 02:06:55;;;;;;;2.42;1.10;;;7.50;99.90;;;;;;5060572;28;20520;-62
2022/11/05 02:09:27;;;;;;;2.50;0.77;;;7.50;99.90;;;;;;5061597;28;20052;-62
2022/11/05 02:11:52;;;;;;;1.23;0.70;;;7.50;99.90;;;;;;5064792;28;20040;-62
2022/11/05 02:14:19;;;;;;;3.00;1.25;;;7.40;99.90;;;;;;5067120;28;20045;-62
2022/11/05 02:17:07;;;;;;;2.35;0.80;;;7.40;99.90;;;;;;5066234;28;20030;-62
2022/11/05 02:20:00;;;;;;;2.78;0.77;;;7.40;99.90;;;;;;5057190;28;20087;-62
2022/11/05 02:22:52;;;;;;;1.88;1.08;;;7.30;99.90;;;;;;5064106;28;20024;-62
2022/11/05 02:25:38;;;;;;;1.58;0.90;;;7.30;99.90;;;;;;5058315;28;20079;-63
2022/11/05 02:28:31;;;;;;;1.80;0.73;;;7.30;99.90;;;;;;5063974;28;20016;-62
2022/11/05 02:31:08;;;;;;;2.47;0.85;;;7.30;99.90;;;;;;5062261;28;20016;-62
2022/11/05 02:33:47;;;;;;;3.53;1.00;;;7.20;99.90;;;;;;5061785;28;20075;-62
2022/11/05 02:36:40;;;;;;;1.83;0.90;;;7.20;99.90;;;;;;5059143;28;20017;-62
2022/11/05 02:39:26;;;;;;;2.33;1.00;;;7.20;99.90;;;;;;5061168;28;20017;-62
2022/11/05 02:42:08;;;;;;;2.17;0.90;;;7.20;99.90;;;;;;5059083;28;20096;-62
2022/11/05 02:44:50;;;;;;;1.85;0.95;;;7.20;99.90;;;;;;5064438;28;20040;-62
2022/11/05 02:47:46;;;;;;;1.80;1.10;;;7.30;99.90;;;;;;5063231;28;20021;-62
2022/11/05 02:50:23;;;;;;;1.90;0.88;;;7.20;99.90;;;;;;5053362;28;20017;-62
2022/11/05 02:52:58;;;;;;;4.07;1.48;;;7.30;99.90;;;;;;5067774;28;20024;-62
2022/11/05 02:55:32;;;;;;;2.47;1.20;;;7.20;99.90;;;;;;5057730;28;20368;-62
2022/11/05 02:58:01;;;;;;;3.05;1.33;;;7.20;99.90;;;;;;5055997;28;20029;-62
2022/11/05 03:00:36;;;;;;;3.97;1.52;;;7.20;99.90;;;;;;5064234;28;20016;-62
2022/11/05 03:03:04;;;;;;;4.88;2.00;;;7.30;99.90;;;;;;5064189;28;20054;-62
2022/11/05 03:05:43;;;;;;;2.53;1.48;;;7.30;99.90;;;;;;5065067;28;20016;-62
2022/11/05 03:08:34;;;;;;;3.72;1.80;;;7.30;99.90;;;;;;5057299;28;20485;-62
2022/11/05 03:11:23;;;;;;;2.92;2.00;;;7.30;99.90;;;;;;5062931;28;20024;-62
2022/11/05 03:13:55;;;;;;;3.67;2.33;;;7.20;99.90;;;;;;5057839;28;20450;-62
2022/11/05 03:16:41;;;;;;;3.55;1.80;;;7.20;99.90;;;;;;5063164;28;20025;-62
2022/11/05 03:19:41;;;;;;;4.70;2.28;;;7.20;99.90;;;;;;5057994;28;20508;-62
2022/11/05 03:22:14;;;;;;;5.00;2.38;;;7.20;99.90;;;;;;5045971;28;20037;-62
2022/11/05 03:24:47;;;;;;;3.10;2.20;;;7.20;99.90;;;;;;5063153;28;20039;-62
2022/11/05 03:27:18;;;;;;;6.10;2.47;;;7.20;99.90;;;;;;5057859;28;20070;-62
2022/11/05 03:29:48;;;;;;;4.90;2.25;;;7.20;99.90;;;;;;5060880;28;20127;-62
2022/11/05 03:32:15;;;;;;;6.82;2.47;;;7.20;99.90;;;;;;5060747;28;20040;-62
2022/11/05 03:34:46;;;;;;;4.82;3.08;;;7.20;99.90;;;;;;5062395;28;20089;-62
2022/11/05 03:37:13;;;;;;;4.18;2.20;;;7.10;99.90;;;;;;5063753;28;20464;-62
2022/11/05 03:39:43;;;;;;;5.28;3.20;;;7.10;99.90;;;;;;5063569;28;20376;-62
2022/11/05 03:42:12;;;;;;;5.68;3.00;;;7.00;99.90;;;;;;5061491;28;20044;-61
2022/11/05 03:44:41;;;;;;;;;;;7.00;99.90;;;;;;5069272;28;20021;-62
2022/11/05 03:47:14;;;;;;;5.50;3.63;;;6.90;99.90;;;;;;5065214;28;19915;-62
2022/11/05 03:50:06;;;;;;;6.15;3.35;;;6.80;99.90;;;;;;5058543;28;20032;-62
2022/11/05 03:52:40;;;;;;;4.40;3.17;;;6.80;99.90;;;;;;5062545;28;20033;-62
2022/11/05 03:55:06;;;;;;;4.97;3.10;;;6.80;99.90;;;;;;5062964;28;20060;-62
2022/11/05 03:57:35;;;;;;;7.43;3.67;;;6.70;99.90;;;;;;5060062;28;20051;-62
2022/11/05 04:00:06;;;;;;;4.57;3.30;;;6.70;99.90;;;;;;5062613;28;20384;-62
2022/11/05 04:02:31;;;;;;;5.10;3.30;;;6.70;99.90;;;;;;5064083;28;20113;-62
2022/11/05 04:04:57;;;;;;;5.22;3.58;;;6.70;99.90;;;;;;5053406;28;20105;-62
2022/11/05 04:17:05;;;;;;;6.40;2.90;;;6.70;99.90;;;;;;5063018;28;20035;-62
2022/11/05 04:18:21;;;;;;;7.82;3.13;;;6.70;99.90;;;;;;5062672;28;20400;-62
2022/11/05 04:26:15;;;;;;;6.55;3.55;;;6.70;99.90;;;;;;5060730;28;20047;-62
2022/11/05 04:31:24;;;;;;;6.32;3.28;;;6.70;99.90;;;;;;5065312;28;20075;-62
2022/11/05 04:33:50;;;;;;;6.93;3.13;;;6.70;99.90;;;;;;5068320;28;20392;-62
2022/11/05 04:36:15;;;;;;;4.00;2.67;;;6.70;99.90;;;;;;5063716;28;20040;-62
2022/11/05 04:38:41;;;;;;;5.03;2.80;;;6.70;99.90;;;;;;5066900;28;20061;-62
2022/11/05 04:41:15;;;;;;;7.82;3.53;;;6.70;99.90;;;;;;5065626;28;20028;-62
2022/11/05 04:43:41;;;;;;;4.43;3.28;;;6.70;99.90;;;;;;5061977;28;20516;-62
2022/11/05 04:46:06;;;;;;;3.28;2.65;;;6.70;99.90;;;;;;5057018;28;20025;-62
2022/11/05 04:48:32;;;;;;;4.35;3.35;;;6.70;99.90;;;;;;5065986;28;20032;-62
2022/11/05 04:50:57;;;;;;;4.43;2.88;;;6.60;99.90;;;;;;5058586;28;20354;-62
2022/11/05 04:53:23;;;;;;;4.68;3.50;;;6.60;99.90;;;;;;5060204;28;20048;-62
2022/11/05 04:55:48;;;;;;;4.75;3.72;;;6.60;99.90;;;;;;5062648;28;20035;-62
2022/11/05 04:58:14;;;;;;;7.75;3.80;;;6.60;99.90;;;;;;5068414;28;20060;-62
2022/11/05 05:00:39;;;;;;;5.43;3.92;;;6.50;99.90;;;;;;5067294;28;20482;-62
2022/11/05 05:03:05;;;;;;;6.78;3.95;;;6.50;99.90;;;;;;5056673;28;20496;-62
2022/11/05 05:05:30;;;;;;;5.97;4.10;;;6.50;99.90;;;;;;5065664;28;20032;-62
2022/11/05 05:08:05;;;;;;;8.20;4.35;;;6.50;99.90;;;;;;5058492;28;20025;-62
2022/11/05 05:10:31;;;;;;;8.90;4.40;;;6.50;99.90;;;;;;5065119;28;20024;-62
2022/11/05 05:12:57;;;;;;;6.75;4.07;;;6.40;99.90;;;;;;5063651;28;20101;-62
2022/11/05 05:15:23;;;;;;;6.50;4.38;;;6.40;99.90;;;;;;5065178;28;20488;-62
2022/11/05 05:17:52;;;;;;;6.88;4.20;;;6.40;99.90;;;;;;5060421;28;20477;-62
2022/11/05 05:23:03;;;;;;;6.15;4.30;;;6.40;99.90;;;;;;5067929;28;20086;-62
2022/11/05 05:25:29;;;;;;;7.03;4.13;;;6.40;99.90;;;;;;5064955;28;20017;-62
2022/11/05 05:27:57;;;;;;;6.53;4.28;;;6.40;99.90;;;;;;5065131;28;20043;-62
2022/11/05 05:30:23;;;;;;;4.82;3.90;;;6.40;99.90;;;;;;5070479;28;20025;-62
2022/11/05 05:32:49;;;;;;;6.57;4.25;;;6.50;99.90;;;;;;5065242;28;20075;-62
2022/11/05 05:35:15;;;;;;;6.45;4.80;;;6.50;99.90;;;;;;5057202;28;20021;-62
2022/11/05 05:37:41;;;;;;;9.52;5.10;;;6.50;99.90;;;;;;5066713;28;20422;-62
2022/11/05 05:40:07;;;;;;;7.28;5.18;;;6.50;99.90;;;;;;5061482;28;20414;-62
2022/11/05 05:42:33;;;;;;;6.70;4.57;;;6.50;99.90;;;;;;5066151;28;20033;-62
2022/11/05 05:44:58;;;;;;;5.50;3.90;;;6.50;99.90;;;;;;5065059;28;20027;-62
2022/11/05 05:47:24;;;;;;;5.35;3.55;;;6.50;99.90;;;;;;5066369;28;20025;-62
2022/11/05 05:49:50;;;;;;;5.55;4.05;;;6.50;99.90;;;;;;5052624;28;20431;-62
2022/11/05 05:52:15;;;;;;;6.15;3.78;;;6.50;99.90;;;;;;5064288;28;20052;-62
2022/11/05 05:54:41;;;;;;;5.82;3.67;;;6.50;99.90;;;;;;5070513;28;20108;-62
2022/11/05 05:57:06;;;;;;;5.35;3.60;;;6.50;99.90;;;;;;5061707;28;20056;-62
2022/11/05 05:59:31;;;;;;;7.35;3.88;;;6.50;99.90;;;;;;5062841;28;20135;-62
2022/11/05 06:01:57;;;;;;;5.32;3.67;;;6.50;99.90;;;;;;5062030;28;20499;-62
2022/11/05 06:04:23;;;;;;;4.03;3.40;;;6.50;99.90;;;;;;5066499;28;20032;-62
2022/11/05 06:06:48;;;;;;;4.20;2.90;;;6.50;99.90;;;;;;5072658;28;20048;-62
2022/11/05 06:09:14;;;;;;;4.97;3.53;;;6.50;99.90;;;;;;5067513;28;20021;-62
2022/11/05 06:11:40;;;;;;;5.85;4.38;;;6.50;99.90;;;;;;5060295;28;20025;-62
2022/11/05 06:14:08;;;;;;;4.85;3.60;;;6.50;99.90;;;;;;5073424;28;20078;-62
2022/11/05 06:16:34;;;;;;;7.43;4.32;;;6.40;99.90;;;;;;5073789;28;20024;-62
2022/11/05 06:19:01;;;;;;;7.00;4.88;;;6.40;99.90;;;;;;5072352;28;20048;-62
2022/11/05 06:21:26;;;;;;;7.70;5.20;;;6.40;99.90;;;;;;5061519;28;20554;-62
2022/11/05 06:23:52;;;;;;;6.88;4.50;;;6.30;99.90;;;;;;5071673;28;20036;-62
2022/11/05 06:26:18;;;;;;;6.15;4.15;;;6.30;99.90;;;;;;5072549;28;20031;-62
2022/11/05 06:28:44;;;;;;;5.15;4.05;;;6.30;99.90;;;;;;5071578;28;20024;-62
2022/11/05 06:31:12;;;;;;;7.28;4.55;;;6.30;99.90;;;;;;5073473;28;20043;-62
2022/11/05 06:33:38;;;;;;;5.07;3.72;;;6.30;99.90;;;;;;5072054;28;20039;-62
2022/11/05 06:36:05;;;;;;;5.60;3.83;;;6.30;99.90;;;;;;5061630;28;20016;-62
2022/11/05 06:38:32;;;;;;;7.60;4.03;;;6.30;99.90;;;;;;5072818;28;20028;-62
2022/11/05 06:40:58;;;;;;;10.70;5.75;;;6.30;99.90;;;;;;5062345;28;20020;-62
2022/11/05 06:43:24;;;;;;;8.73;6.82;;;6.30;99.90;;;;;;5072442;28;20427;-62
2022/11/05 06:45:50;;;;;;;10.48;6.43;;;6.30;99.90;;;;;;5073207;28;20051;-62
2022/11/05 06:48:15;;;;;;;10.73;7.43;;;6.20;99.90;;;;;;5070745;28;20017;-62
2022/11/05 06:50:44;;;;;;;8.27;6.60;;;6.20;99.90;;;;;;5073010;28;20377;-62
2022/11/05 06:53:11;;;;;;;12.70;8.15;;;6.10;99.90;;;;;;5070830;28;20043;-62
2022/11/05 06:55:36;;;;;;;15.93;9.32;;;6.10;99.90;;;;;;5073347;28;20427;-62
2022/11/05 06:58:03;;;;;;;13.25;8.32;;;6.20;99.90;;;;;;5071146;28;20484;-62
2022/11/05 07:00:28;;;;;;;14.30;8.82;;;6.10;99.90;;;;;;5073115;28;20052;-62
2022/11/05 07:02:57;;;;;;;12.57;9.13;;;6.20;99.90;;;;;;5059031;28;20520;-62
2022/11/05 07:05:23;;;;;;;15.68;8.10;;;6.10;99.90;;;;;;5072881;28;20021;-62
2022/11/05 07:07:48;;;;;;;11.68;8.70;;;6.10;99.90;;;;;;5059109;28;20024;-62
2022/11/05 07:10:16;;;;;;;15.05;8.60;;;6.10;99.90;;;;;;5064515;28;20028;-62
2022/11/05 07:12:42;;;;;;;13.23;8.90;;;6.20;99.90;;;;;;5068190;28;20426;-63
2022/11/05 07:15:10;;;;;;;14.15;9.30;;;6.20;99.90;;;;;;5072399;28;20533;-62
2022/11/05 07:17:35;;;;;;;13.25;8.68;;;6.20;99.90;;;;;;5070610;28;20028;-62
2022/11/05 07:20:02;;;;;;;12.57;7.90;;;6.20;99.90;;;;;;5071886;28;20017;-62
2022/11/05 07:22:28;;;;;;;9.85;7.78;;;6.20;99.90;;;;;;5070620;28;20028;-62
2022/11/05 07:24:53;;;;;;;12.40;8.18;;;6.20;99.90;;;;;;5072641;28;20024;-63
2022/11/05 07:27:19;;;;;;;14.02;8.43;;;6.20;99.90;;;;;;5070149;28;20090;-62
2022/11/05 07:29:44;;;;;;;14.45;8.80;;;6.20;99.90;;;;;;5072454;28;20032;-62
2022/11/05 07:32:10;;;;;;;14.43;9.52;;;6.20;99.90;;;;;;5061010;28;20024;-62
2022/11/05 07:34:35;;;;;;;12.38;8.75;;;6.20;99.90;;;;;;5064459;28;20040;-62
2022/11/05 07:37:01;;;;;;;8.90;7.60;;;6.20;99.90;;;;;;5055551;28;20020;-62
2022/11/05 07:39:26;;;;;;;9.98;7.60;;;6.20;99.90;;;;;;5062334;28;20029;-62
2022/11/05 07:41:53;;;;;;;14.60;8.73;;;6.30;99.90;;;;;;5072363;28;20107;-62
2022/11/05 07:44:22;;;;;;;11.90;8.70;;;6.30;99.90;;;;;;5070619;28;20386;-62
2022/11/05 07:46:48;;;;;;;12.52;7.90;;;6.30;99.90;;;;;;5057406;28;20479;-62
2022/11/05 07:49:14;;;;;;;15.38;9.82;;;6.30;99.90;;;;;;5053362;28;20021;-62
2022/11/05 07:51:39;;;;;;;13.88;8.52;;;6.40;99.90;;;;;;5068819;28;20029;-62
2022/11/05 07:54:05;;;;;;;15.13;9.52;;;6.50;99.90;;;;;;5070930;28;20017;-62
2022/11/05 07:56:30;;;;;;;14.20;8.73;;;6.50;99.90;;;;;;5072023;28;20036;-62
2022/11/05 07:58:56;;;;;;;13.55;8.70;;;6.50;99.90;;;;;;5072491;28;20043;-62
2022/11/05 08:01:21;;;;;;;15.73;9.82;;;6.60;99.90;;;;;;5075948;28;20538;-62
2022/11/05 08:03:47;;;;;;;10.43;8.05;;;6.60;99.90;;;;;;5076192;28;20028;-62
2022/11/05 08:06:12;;;;;;;12.52;8.52;;;6.70;99.90;;;;;;5074523;28;20028;-62
2022/11/05 08:08:38;;;;;;;16.30;8.27;;;6.80;99.90;;;;;;5076334;28;20461;-62
2022/11/05 08:11:09;;;;;;;14.48;9.43;;;6.80;99.90;;;;;;5062950;28;20516;-62
2022/11/05 08:13:35;;;;;;;10.10;7.82;;;7.00;99.90;;;;;;5075602;28;20025;-62
2022/11/05 08:16:01;;;;;;;11.57;8.02;;;7.00;99.90;;;;;;5075051;28;20020;-62
2022/11/05 08:18:31;;;;;;;11.18;8.60;;;7.10;99.90;;;;;;5076155;28;20492;-62
2022/11/05 08:20:59;;;;;;;11.77;8.38;;;7.10;99.90;;;;;;5071552;28;20043;-62
2022/11/05 08:23:25;;;;;;;11.02;8.23;;;7.20;99.90;;;;;;5067690;28;20024;-62
2022/11/05 08:25:51;;;;;;;10.40;7.15;;;7.30;99.90;;;;;;5074468;28;20035;-62
2022/11/05 08:28:18;;;;;;;11.65;7.75;;;7.30;99.90;;;;;;5072554;28;20465;-62
2022/11/05 08:30:48;;;;;;;10.07;7.75;;;7.40;99.90;;;;;;5070079;28;20103;-62
2022/11/05 08:33:13;;;;;;;12.35;8.50;;;7.50;99.90;;;;;;5069940;28;20029;-62
2022/11/05 08:35:39;;;;;;;12.23;8.23;;;7.50;99.90;;;;;;5074185;28;20472;-62
2022/11/05 08:38:06;;;;;;;12.25;7.95;;;7.60;99.90;;;;;;5073903;28;20524;-62
2022/11/05 08:40:34;;;;;;;8.70;6.72;;;7.60;99.90;;;;;;5072944;28;20134;-62
2022/11/05 08:43:04;;;;;;;12.65;7.95;;;7.70;99.90;;;;;;5071088;28;20407;-62
2022/11/05 08:45:30;;;;;;;7.75;6.10;;;7.80;99.90;;;;;;5072254;28;20039;-62
2022/11/05 08:48:00;;;;;;;11.52;7.13;;;7.90;99.90;;;;;;5072718;28;20469;-62
2022/11/05 08:50:25;;;;;;;;;;;8.00;99.90;;;;;;5074351;28;20109;-62
2022/11/05 08:52:51;;;;;;;9.90;6.82;;;8.00;99.90;;;;;;5073062;28;20325;-62
2022/11/05 08:55:17;;;;;;;14.55;7.20;;;8.00;99.90;;;;;;5056642;28;20025;-62
2022/11/05 08:57:45;;;;;;;13.35;7.57;;;8.10;99.90;;;;;;5068764;28;20188;-62
2022/11/05 09:00:11;;;;;;;8.07;6.25;;;8.20;99.90;;;;;;5086452;28;20017;-62
2022/11/05 09:02:37;;;;;;;10.98;7.50;;;8.30;99.90;;;;;;5069668;28;20019;-62
2022/11/05 09:05:03;;;;;;;12.32;6.82;;;8.40;99.90;;;;;;5056341;28;20033;-62
2022/11/05 09:07:28;;;;;;;11.48;7.68;;;8.50;99.90;;;;;;5073251;28;20469;-62
2022/11/05 09:09:54;;;;;;;8.90;6.53;;;8.50;99.90;;;;;;5070326;28;20100;-62
2022/11/05 09:12:19;;;;;;;13.15;7.38;;;8.60;99.90;;;;;;5073776;28;20028;-62
2022/11/05 09:14:45;;;;;;;13.10;7.93;;;8.70;99.90;;;;;;5073264;28;20028;-62
2022/11/05 09:17:19;;;;;;;11.38;6.50;;;8.80;99.90;;;;;;5074183;28;20075;-62
2022/11/05 09:19:44;;;;;;;9.52;6.40;;;8.90;99.90;;;;;;5053174;28;20102;-62
2022/11/05 09:22:11;;;;;;;14.20;7.28;;;8.90;99.90;;;;;;5059963;28;20017;-62
2022/11/05 09:24:41;;;;;;;10.38;6.40;;;9.00;99.90;;;;;;5069691;28;20017;-62
2022/11/05 09:27:12;;;;;;;10.90;6.85;;;9.10;99.90;;;;;;5069244;28;20029;-62
2022/11/05 09:29:38;;;;;;;10.30;6.90;;;9.20;99.90;;;;;;5060777;28;20021;-62
2022/11/05 09:32:03;;;;;;;7.97;5.93;;;9.30;99.90;;;;;;5067372;28;20021;-62
2022/11/05 09:34:29;;;;;;;10.98;6.60;;;9.30;99.90;;;;;;5073417;28;20020;-63
2022/11/05 09:36:56;;;;;;;8.85;5.97;;;9.40;99.90;;;;;;5074071;28;20029;-62
2022/11/05 09:39:22;;;;;;;8.02;5.93;;;9.60;99.90;;;;;;5074328;28;20039;-62
2022/11/05 09:41:48;;;;;;;8.20;5.95;;;9.70;99.90;;;;;;5072777;28;20425;-63
2022/11/05 09:44:23;;;;;;;9.63;5.65;;;9.90;99.90;;;;;;5072899;28;20102;-63
2022/11/05 09:46:55;;;;;;;9.55;5.85;;;10.10;99.90;;;;;;5072483;28;20104;-63
2022/11/05 09:49:48;;;;;;;8.82;6.03;;;10.40;99.90;;;;;;5074370;28;20021;-63
2022/11/05 09:52:20;;;;;;;6.95;4.75;;;10.70;99.90;;;;;;5070001;28;20024;-63
2022/11/05 09:54:47;;;;;;;7.18;4.57;;;11.70;99.90;;;;;;5080059;28;20036;-63
2022/11/05 09:57:18;;;;;;;5.93;3.70;;;13.10;99.90;;;;;;5074196;28;20020;-63
2022/11/05 09:59:47;;;;;;;5.85;3.63;;;14.30;99.90;;;;;;5073730;28;20078;-63
2022/11/05 10:02:39;;;;;;;6.72;3.63;;;14.90;98.10;;;;;;5074416;28;20023;-63
2022/11/05 10:05:08;;;;;;;5.15;3.13;;;15.70;96.00;;;;;;5073370;28;20028;-63
2022/11/05 10:07:42;;;;;;;5.32;3.92;;;16.80;93.10;;;;;;5072351;28;20081;-63
2022/11/05 10:10:24;;;;;;;5.80;2.95;;;17.30;91.60;;;;;;5054285;28;20021;-63
2022/11/05 10:12:53;;;;;;;4.82;2.90;;;18.30;90.00;;;;;;5070227;28;20016;-63
2022/11/05 10:15:19;;;;;;;;;;;19.10;87.90;;;;;;5074291;28;20044;-63
2022/11/05 10:17:49;;;;;;;4.65;3.33;;;19.20;82.10;;;;;;5073458;28;19950;-63
2022/11/05 10:20:32;;;;;;;6.28;3.30;;;19.70;78.80;;;;;;5073893;28;20488;-63
2022/11/05 10:23:15;;;;;;;4.82;2.50;;;20.80;71.60;;;;;;5060206;28;20038;-64
2022/11/05 10:25:45;;;;;;;6.13;3.10;;;22.10;69.90;;;;;;5073260;28;20013;-63
2022/11/05 10:28:17;;;;;;;4.28;2.40;;;23.20;62.40;;;;;;5073740;28;20444;-63
2022/11/05 10:30:45;;;;;;;4.40;2.63;;;23.80;58.90;;;;;;5073462;28;20063;-63
2022/11/05 10:33:15;;;;;;;4.28;2.63;;;23.70;57.20;;;;;;5073151;28;20029;-64
2022/11/05 10:35:48;;;;;;;4.07;2.35;;;23.60;56.00;;;;;;5071937;28;20081;-63
2022/11/05 10:38:14;;;;;;;4.28;2.28;;;23.30;55.20;;;;;;5073094;28;20476;-63
2022/11/05 10:40:50;;;;;;;5.25;2.63;;;22.30;57.20;;;;;;5072779;28;20035;-63
2022/11/05 10:43:33;;;;;;;5.63;3.17;;;21.20;58.50;;;;;;5072232;28;20048;-63
2022/11/05 10:46:23;;;;;;;5.95;2.90;;;19.90;60.70;;;;;;5073351;28;20104;-64
2022/11/05 10:49:17;;;;;;;5.95;3.22;;;18.90;63.00;;;;;;5051847;28;20029;-63
2022/11/05 10:51:43;;;;;;;6.63;2.80;;;18.20;65.70;;;;;;5088477;28;20051;-63
2022/11/05 10:54:16;;;;;;;5.13;3.08;;;17.50;66.90;;;;;;5100113;28;20107;-63
2022/11/05 10:56:43;;;;;;;5.75;3.28;;;17.20;68.50;;;;;;5059654;28;20028;-63
2022/11/05 10:59:19;;;;;;;6.18;3.47;;;16.90;69.00;;;;;;5062757;28;20029;-63
2022/11/05 11:01:45;;;;;;;5.43;3.20;;;16.60;69.60;;;;;;5057858;28;20020;-63
2022/11/05 11:04:10;;;;;;;5.78;3.72;;;16.00;71.30;;;;;;5073051;28;20059;-63
2022/11/05 11:06:37;;;;;;;5.03;3.03;;;15.60;72.80;;;;;;5069618;28;20048;-63
2022/11/05 11:09:07;;;;;;;6.07;2.92;;;15.40;74.70;;;;;;5061866;28;20051;-63
2022/11/05 11:11:35;;;;;;;8.65;3.10;;;15.20;75.50;;;;;;5058837;28;20029;-63
2022/11/05 11:14:03;;;;;;;6.88;3.55;;;14.90;76.00;;;;;;5073022;28;20033;-63
2022/11/05 11:16:34;;;;;;;6.65;3.33;;;14.60;77.40;;;;;;5055943;28;20079;-63
2022/11/05 11:19:01;;;;;;;5.75;3.00;;;14.40;78.50;;;;;;5070915;28;20099;-63
2022/11/05 11:21:29;;;;;;;7.68;3.50;;;14.10;80.10;;;;;;5071449;28;20485;-63
2022/11/05 11:24:05;;;;;;;5.28;3.70;;;13.90;81.00;;;;;;5070095;28;20028;-63
2022/11/05 11:26:39;;;;;;;7.15;3.38;;;13.80;81.60;;;;;;5069531;28;20388;-63
2022/11/05 11:29:26;;;;;;;8.27;3.60;;;13.70;82.40;;;;;;5071004;28;20044;-63
2022/11/05 11:31:54;;;;;;;6.50;3.50;;;13.70;83.10;;;;;;5066866;28;20017;-63
2022/11/05 11:34:32;;;;;;;5.35;3.20;;;13.60;84.30;;;;;;5067880;28;20058;-63
2022/11/05 11:37:05;;;;;;;9.50;3.67;;;13.60;84.50;;;;;;5070782;28;20690;-63
2022/11/05 11:39:32;;;;;;;5.45;3.28;;;13.60;84.90;;;;;;5069760;28;20479;-63
2022/11/05 11:42:06;;;;;;;5.30;3.42;;;13.40;85.50;;;;;;5071979;28;20091;-63
2022/11/05 11:44:40;;;;;;;6.35;3.20;;;13.40;85.40;;;;;;5064962;28;20562;-63
2022/11/05 11:47:13;;;;;;;8.27;3.55;;;13.30;85.90;;;;;;5065995;28;20122;-63
2022/11/05 11:49:51;;;;;;;6.88;3.30;;;13.20;86.40;;;;;;5070069;28;20021;-63
2022/11/05 11:52:28;;;;;;;7.13;3.58;;;13.30;87.00;;;;;;5073413;28;20103;-63
2022/11/05 11:55:12;;;;;;;6.22;3.33;;;13.20;87.60;;;;;;5069935;28;20111;-63
2022/11/05 11:57:49;;;;;;;6.60;3.15;;;13.40;87.80;;;;;;5069992;28;20375;-63
2022/11/05 12:00:16;;;;;;;7.40;3.97;;;13.50;88.50;;;;;;5070782;28;20020;-63
2022/11/05 12:03:18;;;;;;;7.80;4.15;;;13.40;88.20;;;;;;5070613;28;20035;-63
2022/11/05 12:06:09;;;;;;;7.03;4.07;;;13.40;88.60;;;;;;5068101;28;20017;-63
2022/11/05 12:08:49;;;;;;;7.13;3.63;;;13.30;88.60;;;;;;5070835;28;20024;-63
2022/11/05 12:11:33;;;;;;;7.35;3.90;;;13.20;89.00;;;;;;5067360;28;20033;-63
2022/11/05 12:14:08;;;;;;;8.60;3.88;;;13.20;89.80;;;;;;5067974;28;20070;-63
2022/11/05 12:17:13;;;;;;;8.68;4.05;;;13.20;90.10;;;;;;5085784;28;20035;-63
2022/11/05 12:20:00;;;;;;;6.15;4.07;;;13.10;90.20;;;;;;5069487;28;20020;-63
2022/11/05 12:22:40;;;;;;;9.48;4.90;;;12.90;90.60;;;;;;5070028;28;20652;-63
2022/11/05 12:25:21;;;;;;;;;;;12.80;90.80;;;;;;5068243;28;20099;-63
2022/11/05 12:28:20;;;;;;;7.00;4.13;;;12.60;91.10;;;;;;5069321;28;19911;-63
2022/11/05 12:30:53;;;;;;;8.18;4.03;;;12.60;91.60;;;;;;5066356;28;20017;-63
2022/11/05 12:33:41;;;;;;;5.97;4.32;;;12.60;92.10;;;;;;5067414;28;20059;-63
2022/11/05 12:36:19;;;;;;;9.43;4.22;;;12.70;91.80;;;;;;5069418;28;20096;-63
2022/11/05 12:38:47;;;;;;;11.13;5.35;;;12.90;91.70;;;;;;5070446;28;20017;-64
2022/11/05 12:41:29;;;;;;;10.23;5.57;;;13.10;91.50;;;;;;5070199;28;20109;-63
2022/11/05 12:44:10;;;;;;;9.38;4.68;;;13.30;91.20;;;;;;5069964;28;20078;-63
2022/11/05 12:47:13;;;;;;;9.25;4.30;;;14.00;90.70;;;;;;5068420;28;20035;-63
2022/11/05 12:49:41;;;;;;;7.35;4.03;;;15.40;89.10;;;;;;5074640;28;20029;-63
2022/11/05 12:52:28;;;;;;;10.25;4.80;;;16.70;83.80;;;;;;5071084;28;20012;-63
2022/11/05 12:55:11;;;;;;;9.23;4.40;;;17.20;79.10;;;;;;5068069;28;20028;-63
2022/11/05 12:57:40;;;;;;;8.40;4.40;;;17.10;78.40;;;;;;5073911;28;20078;-63
2022/11/05 13:00:22;;;;;;;6.65;4.60;;;16.80;78.30;;;;;;5073947;28;20048;-63
2022/11/05 13:03:19;;;;;;;10.98;5.20;;;16.20;79.00;;;;;;5071014;28;20531;-63
2022/11/05 13:05:49;;;;;;;7.88;4.30;;;15.50;80.30;;;;;;5088470;28;20048;-63
2022/11/05 13:08:41;;;;;;;8.95;4.93;;;14.90;82.60;;;;;;5070815;28;20044;-63
2022/11/05 13:11:07;;;;;;;7.40;4.30;;;14.50;84.50;;;;;;5042671;28;20052;-63
2022/11/05 13:13:59;;;;;;;8.00;4.43;;;14.10;86.40;;;;;;5070782;28;20093;-63
2022/11/05 13:16:31;;;;;;;7.80;3.22;;;14.00;87.00;;;;;;5072156;28;20476;-63
2022/11/05 13:19:12;;;;;;;7.60;3.15;;;13.80;87.30;;;;;;5073422;28;20020;-63
2022/11/05 13:21:40;;;;;;;7.82;2.90;;;13.80;86.80;;;;;;5071841;28;20028;-63
2022/11/05 13:24:14;;;;;;;8.00;2.67;;;13.80;87.00;;;;;;5079198;28;20035;-63
2022/11/05 13:26:47;;;;;;;7.80;3.22;;;13.90;87.00;;;;;;5081430;28;20022;-63
2022/11/05 13:29:19;;;;;;;4.30;2.28;;;13.70;85.70;;;;;;5073061;28;20567;-63
2022/11/05 13:31:50;;;;;;;3.53;2.22;;;13.60;86.00;;;;;;5074752;28;20818;-63
2022/11/05 13:34:16;;;;;;;5.93;2.42;;;13.50;87.10;;;;;;5072991;28;20027;-63
2022/11/05 13:39:57;;;;;;;6.80;3.05;;;13.50;86.80;;;;;;5073343;28;20534;-63
2022/11/05 13:42:44;;;;;;;6.78;2.90;;;13.40;87.70;;;;;;5071046;28;20071;-62
2022/11/05 13:45:22;;;;;;;7.07;3.22;;;13.40;87.70;;;;;;5068731;28;20538;-63
2022/11/05 13:48:42;;;;;;;6.88;3.83;;;13.30;88.60;;;;;;5069833;28;20785;-63
2022/11/05 13:51:13;;;;;;;6.07;3.72;;;13.20;89.10;;;;;;5046266;28;20118;-63
2022/11/05 13:54:00;;;;;;;7.15;4.38;;;13.20;89.70;;;;;;5071132;28;20388;-63
2022/11/05 13:56:50;;;;;;;8.23;3.60;;;13.10;89.80;;;;;;5072096;28;20021;-63
2022/11/05 13:59:45;;;;;;;6.13;3.60;;;13.10;89.60;;;;;;5067686;28;20071;-63
2022/11/05 14:02:21;;;;;;;5.28;3.33;;;13.00;89.80;;;;;;5062455;28;20021;-63